createdAt,value
2022-12-31T00:02:29.565Z,97502.20
2022-12-31T00:05:00.894Z,97500.98
2022-12-31T00:10:01.539Z,97503.27
2022-12-31T00:12:33.147Z,97497.98
2022-12-31T00:15:04.438Z,97499.81
2022-12-31T00:17:35.898Z,97502.65
2022-12-31T00:20:05.739Z,97501.02
2022-12-31T00:22:36.768Z,97499.14
2022-12-31T00:25:07.276Z,97496.70
2022-12-31T00:27:38.365Z,97493.80
2022-12-31T00:30:09.120Z,97498.83
2022-12-31T00:32:40.085Z,97500.67
2022-12-31T00:35:10.382Z,97509.67
2022-12-31T00:37:41.706Z,97510.22
2022-12-31T00:40:14.577Z,97507.47
2022-12-31T00:42:45.758Z,97510.77
2022-12-31T00:45:17.173Z,97513.06
2022-12-31T00:47:48.885Z,97507.05
2022-12-31T00:50:20.012Z,97494.13
2022-12-31T00:52:51.189Z,97502.31
2022-12-31T00:55:22.151Z,97502.46
2022-12-31T00:57:53.272Z,97508.98
2022-12-31T01:00:24.558Z,97520.92
2022-12-31T01:02:56.023Z,97524.79
2022-12-31T01:05:25.680Z,97526.36
2022-12-31T01:07:56.755Z,97533.34
2022-12-31T01:10:57.535Z,97536.59
2022-12-31T01:13:28.604Z,97541.95
2022-12-31T01:15:59.583Z,97543.01
2022-12-31T01:18:30.452Z,97541.48
2022-12-31T01:21:04.635Z,97551.30
2022-12-31T01:23:35.979Z,97554.65
2022-12-31T01:26:09.265Z,97560.87
2022-12-31T01:28:40.291Z,97565.09
2022-12-31T01:31:15.289Z,97561.23
2022-12-31T01:33:47.281Z,97569.16
2022-12-31T01:36:25.364Z,97577.56
2022-12-31T01:38:58.436Z,97577.36
2022-12-31T01:41:32.238Z,97570.84
2022-12-31T01:44:04.932Z,97557.75
2022-12-31T01:46:40.661Z,97550.83
2022-12-31T01:49:18.465Z,97557.60
2022-12-31T01:51:54.010Z,97558.16
2022-12-31T01:54:28.488Z,97559.18
2022-12-31T01:56:59.963Z,97564.06
2022-12-31T01:59:31.863Z,97568.75
2022-12-31T02:02:03.972Z,97566.48
2022-12-31T02:04:35.468Z,97563.58
2022-12-31T02:07:09.021Z,97562.50
2022-12-31T02:09:43.057Z,97571.20
2022-12-31T02:12:14.296Z,97564.94
2022-12-31T02:14:49.271Z,97566.05
2022-12-31T02:17:26.802Z,97571.03
2022-12-31T02:20:30.210Z,97570.73
2022-12-31T02:23:14.271Z,97576.67
2022-12-31T02:26:14.565Z,97577.84
2022-12-31T02:29:06.347Z,97578.70
2022-12-31T02:31:41.406Z,97582.30
2022-12-31T02:34:20.007Z,97584.39
2022-12-31T02:36:54.079Z,97589.83
2022-12-31T02:39:25.543Z,97597.66
2022-12-31T02:41:56.717Z,97601.90
2022-12-31T02:44:30.012Z,97600.25
2022-12-31T02:47:21.743Z,97595.96
2022-12-31T02:50:18.949Z,97600.05
2022-12-31T02:52:57.779Z,97603.35
2022-12-31T02:55:36.100Z,97602.06
2022-12-31T02:58:14.530Z,97615.77
2022-12-31T03:01:09.158Z,97616.63
2022-12-31T03:03:40.659Z,97598.78
2022-12-31T03:06:12.994Z,97586.81
2022-12-31T03:08:59.081Z,97599.50
2022-12-31T03:11:48.124Z,97603.48
2022-12-31T03:14:19.161Z,97614.79
2022-12-31T03:16:50.463Z,97613.11
2022-12-31T03:19:38.916Z,97612.95
2022-12-31T03:22:29.350Z,97614.22
2022-12-31T03:25:21.967Z,97610.95
2022-12-31T03:27:53.395Z,97609.88
2022-12-31T03:30:26.108Z,97610.08
2022-12-31T03:32:57.585Z,97607.06
2022-12-31T03:35:30.554Z,97604.36
2022-12-31T03:38:01.724Z,97605.73
2022-12-31T03:40:35.221Z,97609.25
2022-12-31T03:43:06.951Z,97611.34
2022-12-31T03:45:38.523Z,97612.09
2022-12-31T03:48:11.205Z,97605.62
2022-12-31T03:50:42.202Z,97602.77
2022-12-31T03:53:13.457Z,97606.27
2022-12-31T03:55:45.091Z,97595.31
2022-12-31T03:58:16.192Z,97582.17
2022-12-31T04:00:47.494Z,97582.17
2022-12-31T04:03:18.654Z,97575.60
2022-12-31T04:05:55.074Z,97578.50
2022-12-31T04:08:26.639Z,97583.19
2022-12-31T04:10:57.743Z,97587.97
2022-12-31T04:13:28.734Z,97587.71
2022-12-31T04:15:59.914Z,97589.54
2022-12-31T04:18:30.907Z,97599.16
2022-12-31T04:21:05.352Z,97599.42
2022-12-31T04:23:36.477Z,97612.07
2022-12-31T04:26:07.832Z,97616.10
2022-12-31T04:28:38.851Z,97618.79
2022-12-31T04:31:08.332Z,97625.77
2022-12-31T04:33:39.379Z,97632.55
2022-12-31T04:36:11.585Z,97633.15
2022-12-31T04:38:42.579Z,97630.29
2022-12-31T04:41:19.776Z,97620.76
2022-12-31T04:43:52.581Z,97621.02
2022-12-31T04:46:25.860Z,97607.61
2022-12-31T04:48:57.661Z,97602.66
2022-12-31T04:51:30.649Z,97602.41
2022-12-31T04:54:02.191Z,97603.53
2022-12-31T04:56:36.713Z,97611.63
2022-12-31T04:59:08.912Z,97604.70
2022-12-31T05:01:40.801Z,97603.32
2022-12-31T05:04:11.989Z,97609.69
2022-12-31T05:06:43.196Z,97613.05
2022-12-31T05:09:14.239Z,97613.30
2022-12-31T05:11:48.847Z,97606.67
2022-12-31T05:14:20.163Z,97599.02
2022-12-31T05:16:52.194Z,97596.46
2022-12-31T05:19:23.196Z,97605.28
2022-12-31T05:22:07.939Z,97604.83
2022-12-31T05:24:39.291Z,97597.63
2022-12-31T05:27:10.346Z,97601.24
2022-12-31T05:29:41.445Z,97605.68
2022-12-31T05:32:12.341Z,97608.13
2022-12-31T05:34:43.735Z,97617.27
2022-12-31T05:37:14.686Z,97617.29
2022-12-31T05:39:45.821Z,97618.66
2022-12-31T05:42:16.803Z,97612.73
2022-12-31T05:44:48.226Z,97614.35
2022-12-31T05:47:19.725Z,97611.29
2022-12-31T05:49:50.665Z,97617.75
2022-12-31T05:52:22.430Z,97630.76
2022-12-31T05:54:53.582Z,97630.14
2022-12-31T05:57:23.068Z,97637.48
2022-12-31T05:59:54.176Z,97642.13
2022-12-31T06:02:25.493Z,97646.52
2022-12-31T06:04:56.701Z,97639.77
2022-12-31T06:07:27.813Z,97635.53
2022-12-31T06:09:59.226Z,97641.45
2022-12-31T06:12:30.355Z,97647.47
2022-12-31T06:15:01.458Z,97648.49
2022-12-31T06:17:32.796Z,97656.49
2022-12-31T06:20:08.906Z,97655.12
2022-12-31T06:22:43.439Z,97646.76
2022-12-31T06:25:12.926Z,97645.44
2022-12-31T06:27:43.984Z,97655.07
2022-12-31T06:30:16.719Z,97659.49
2022-12-31T06:32:48.033Z,97651.61
2022-12-31T06:35:17.334Z,97654.20
2022-12-31T06:37:48.404Z,97648.80
2022-12-31T06:40:19.551Z,97649.91
2022-12-31T06:42:54.612Z,97647.20
2022-12-31T06:45:28.927Z,97652.28
2022-12-31T06:47:59.991Z,97653.34
2022-12-31T06:50:31.031Z,97651.04
2022-12-31T06:53:02.328Z,97667.12
2022-12-31T06:55:32.557Z,97673.89
2022-12-31T06:58:04.573Z,97668.79
2022-12-31T07:00:36.494Z,97671.89
2022-12-31T07:03:26.951Z,97675.09
2022-12-31T07:06:03.923Z,97681.14
2022-12-31T07:08:48.525Z,97680.36
2022-12-31T07:11:23.686Z,97684.69
2022-12-31T07:14:04.508Z,97677.61
2022-12-31T07:16:57.421Z,97669.80
2022-12-31T07:19:37.095Z,97676.98
2022-12-31T07:22:11.203Z,97677.18
2022-12-31T07:24:43.310Z,97686.21
2022-12-31T07:27:37.216Z,97702.13
2022-12-31T07:30:12.975Z,97703.09
2022-12-31T07:33:10.084Z,97708.48
2022-12-31T07:35:49.825Z,97712.23
2022-12-31T07:38:29.383Z,97708.66
2022-12-31T07:41:10.037Z,97713.81
2022-12-31T07:43:54.052Z,97711.50
2022-12-31T07:46:34.929Z,97714.71
2022-12-31T07:49:07.209Z,97705.82
2022-12-31T07:51:39.646Z,97709.65
2022-12-31T07:54:14.237Z,97708.48
2022-12-31T07:56:46.647Z,97698.62
2022-12-31T07:59:33.605Z,97688.59
2022-12-31T08:02:13.945Z,97697.66
2022-12-31T08:04:55.566Z,97706.48
2022-12-31T08:07:34.694Z,97711.20
2022-12-31T08:10:17.337Z,97716.38
2022-12-31T08:12:50.836Z,97718.13
2022-12-31T08:15:30.032Z,97709.56
2022-12-31T08:18:02.049Z,97708.21
2022-12-31T08:20:36.136Z,97713.40
2022-12-31T08:23:25.718Z,97704.64
2022-12-31T08:26:25.185Z,97710.55
2022-12-31T08:29:16.724Z,97711.88
2022-12-31T08:31:58.930Z,97714.88
2022-12-31T08:34:36.506Z,97715.29
2022-12-31T08:37:12.434Z,97711.14
2022-12-31T08:40:02.008Z,97711.42
2022-12-31T08:42:38.204Z,97710.90
2022-12-31T08:45:20.941Z,97711.20
2022-12-31T08:48:01.875Z,97711.63
2022-12-31T08:50:35.783Z,97722.06
2022-12-31T08:53:08.369Z,97714.79
2022-12-31T08:55:40.885Z,97713.23
2022-12-31T08:58:24.308Z,97709.63
2022-12-31T09:00:59.102Z,97711.66
2022-12-31T09:03:43.390Z,97714.35
2022-12-31T09:06:21.619Z,97723.69
2022-12-31T09:08:59.053Z,97724.19
2022-12-31T09:11:35.149Z,97718.44
2022-12-31T09:14:26.850Z,97731.30
2022-12-31T09:17:05.882Z,97727.61
2022-12-31T09:19:37.042Z,97726.77
2022-12-31T09:22:08.828Z,97724.90
2022-12-31T09:24:41.577Z,97728.02
2022-12-31T09:27:23.849Z,97718.95
2022-12-31T09:30:04.055Z,97719.25
2022-12-31T09:32:43.114Z,97706.73
2022-12-31T09:35:23.769Z,97711.30
2022-12-31T09:38:00.459Z,97708.85
2022-12-31T09:40:50.534Z,97713.52
2022-12-31T09:44:02.964Z,97717.73
2022-12-31T09:47:04.757Z,97712.80
2022-12-31T09:50:04.860Z,97719.88
2022-12-31T09:52:54.404Z,97715.07
2022-12-31T09:55:38.441Z,97711.51
2022-12-31T09:58:25.091Z,97720.14
2022-12-31T10:01:03.883Z,97714.65
2022-12-31T10:03:53.313Z,97714.99
2022-12-31T10:06:29.520Z,97721.97
2022-12-31T10:09:33.276Z,97709.77
2022-12-31T10:12:37.205Z,97709.21
2022-12-31T10:15:33.570Z,97712.92
2022-12-31T10:18:15.005Z,97712.11
2022-12-31T10:21:07.451Z,97711.52
2022-12-31T10:24:12.640Z,97705.88
2022-12-31T10:27:00.045Z,97708.77
2022-12-31T10:29:43.385Z,97706.81
2022-12-31T10:32:26.274Z,97701.46
2022-12-31T10:35:14.364Z,97695.95
2022-12-31T10:37:54.303Z,97688.23
2022-12-31T10:40:41.011Z,97683.91
2022-12-31T10:43:44.715Z,97685.97
2022-12-31T10:46:49.420Z,97696.80
2022-12-31T10:49:54.279Z,97692.87
2022-12-31T10:53:00.534Z,97693.96
2022-12-31T10:56:01.157Z,97708.83
2022-12-31T10:58:58.204Z,97700.86
2022-12-31T11:01:39.916Z,97706.25
2022-12-31T11:04:40.761Z,97708.02
2022-12-31T11:07:54.774Z,97703.42
2022-12-31T11:10:52.813Z,97699.79
2022-12-31T11:13:50.979Z,97695.66
2022-12-31T11:16:39.161Z,97685.11
2022-12-31T11:19:22.649Z,97676.39
2022-12-31T11:22:08.533Z,97667.23
2022-12-31T11:24:55.617Z,97667.01
2022-12-31T11:27:47.608Z,97666.05
2022-12-31T11:30:28.721Z,97664.63
2022-12-31T11:33:20.942Z,97665.59
2022-12-31T11:36:10.442Z,97665.75
2022-12-31T11:38:52.095Z,97669.50
2022-12-31T11:41:29.735Z,97678.50
2022-12-31T11:44:16.184Z,97683.91
2022-12-31T11:46:59.361Z,97683.94
2022-12-31T11:49:49.131Z,97687.55
2022-12-31T11:52:38.671Z,97690.63
2022-12-31T11:55:31.715Z,97681.49
2022-12-31T11:58:12.704Z,97674.11
2022-12-31T12:00:52.293Z,97673.48
2022-12-31T12:03:24.775Z,97669.52
2022-12-31T12:05:57.140Z,97665.38
2022-12-31T12:08:31.608Z,97666.55
2022-12-31T12:11:07.908Z,97666.24
2022-12-31T12:13:39.073Z,97665.80
2022-12-31T12:16:11.400Z,97661.84
2022-12-31T12:18:47.979Z,97666.63
2022-12-31T12:21:21.937Z,97672.59
2022-12-31T12:24:01.434Z,97672.23
2022-12-31T12:26:37.621Z,97670.06
2022-12-31T12:29:21.532Z,97664.58
2022-12-31T12:32:00.257Z,97667.69
2022-12-31T12:34:33.346Z,97670.38
2022-12-31T12:37:04.951Z,97667.21
2022-12-31T12:39:36.976Z,97660.52
2022-12-31T12:42:12.712Z,97657.22
2022-12-31T12:44:43.791Z,97652.16
2022-12-31T12:47:19.537Z,97654.83
2022-12-31T12:49:55.232Z,97652.84
2022-12-31T12:52:53.848Z,97656.65
2022-12-31T12:55:38.325Z,97659.75
2022-12-31T12:58:19.388Z,97653.30
2022-12-31T13:01:01.281Z,97656.65
2022-12-31T13:07:07.107Z,97651.11
2022-12-31T13:09:56.788Z,97655.81
2022-12-31T13:13:05.284Z,97653.05
2022-12-31T13:15:35.303Z,97652.94
2022-12-31T13:18:24.276Z,97653.57
2022-12-31T13:21:03.006Z,97652.39
2022-12-31T13:23:40.077Z,97655.80
2022-12-31T13:26:15.941Z,97657.94
2022-12-31T13:28:47.454Z,97663.34
2022-12-31T13:31:24.127Z,97671.79
2022-12-31T13:34:00.533Z,97674.96
2022-12-31T13:36:35.409Z,97675.23
2022-12-31T13:39:11.649Z,97679.46
2022-12-31T13:41:47.846Z,97679.14
2022-12-31T13:44:26.337Z,97680.84
2022-12-31T13:47:02.660Z,97685.36
2022-12-31T13:49:37.795Z,97688.56
2022-12-31T13:52:22.639Z,97685.64
2022-12-31T13:55:02.779Z,97685.79
2022-12-31T13:57:43.959Z,97690.56
2022-12-31T14:00:24.159Z,97687.20
2022-12-31T14:03:03.343Z,97687.27
2022-12-31T14:05:38.987Z,97690.47
2022-12-31T14:08:10.812Z,97689.98
2022-12-31T14:10:57.141Z,97683.48
2022-12-31T14:13:46.627Z,97687.16
2022-12-31T14:16:26.261Z,97694.70
2022-12-31T14:19:07.220Z,97698.64
2022-12-31T14:21:45.433Z,97688.86
2022-12-31T14:24:25.592Z,97690.08
2022-12-31T14:27:01.421Z,97704.57
2022-12-31T14:29:40.944Z,97720.02
2022-12-31T14:32:30.582Z,97722.27
2022-12-31T14:35:18.508Z,97721.55
2022-12-31T14:37:58.110Z,97724.54
2022-12-31T14:40:38.927Z,97727.64
2022-12-31T14:43:19.945Z,97729.73
2022-12-31T14:46:04.078Z,97724.39
2022-12-31T14:48:44.725Z,97721.34
2022-12-31T14:51:16.354Z,97713.02
2022-12-31T14:53:57.448Z,97713.11
2022-12-31T14:56:39.153Z,97713.90
2022-12-31T14:59:27.350Z,97712.14
2022-12-31T15:01:59.606Z,97712.30
2022-12-31T15:04:45.783Z,97718.32
2022-12-31T15:07:24.151Z,97720.02
2022-12-31T15:10:10.914Z,97723.13
2022-12-31T15:13:03.949Z,97728.95
2022-12-31T15:15:58.263Z,97728.46
2022-12-31T15:18:44.982Z,97737.61
2022-12-31T15:21:35.720Z,97747.31
2022-12-31T15:24:18.972Z,97749.05
2022-12-31T15:26:57.559Z,97756.05
2022-12-31T15:29:32.988Z,97763.56
2022-12-31T15:32:08.481Z,97764.02
2022-12-31T15:34:39.780Z,97763.55
2022-12-31T15:37:32.460Z,97768.80
2022-12-31T15:40:20.917Z,97768.45
2022-12-31T15:42:55.548Z,97774.40
2022-12-31T15:45:32.841Z,97783.41
2022-12-31T15:48:10.112Z,97794.85
2022-12-31T15:50:42.969Z,97796.02
2022-12-31T15:53:27.707Z,97800.08
2022-12-31T15:56:00.607Z,97806.34
2022-12-31T15:58:36.316Z,97811.45
2022-12-31T16:01:16.100Z,97810.05
2022-12-31T16:03:50.741Z,97812.06
2022-12-31T16:06:22.215Z,97811.06
2022-12-31T16:08:53.413Z,97815.63
2022-12-31T16:11:25.653Z,97815.47
2022-12-31T16:13:58.991Z,97812.95
2022-12-31T16:16:31.906Z,97811.29
2022-12-31T16:19:03.324Z,97812.17
2022-12-31T16:21:35.949Z,97815.14
2022-12-31T16:24:22.965Z,97818.97
2022-12-31T16:27:01.443Z,97820.39
2022-12-31T16:29:33.574Z,97818.28
2022-12-31T16:32:05.368Z,97819.42
2022-12-31T16:34:39.513Z,97826.38
2022-12-31T16:37:18.341Z,97829.97
2022-12-31T16:40:19.488Z,97831.34
2022-12-31T16:42:53.180Z,97831.86
2022-12-31T16:45:34.501Z,97830.85
2022-12-31T16:48:16.572Z,97824.41
2022-12-31T16:50:50.560Z,97823.15
2022-12-31T16:53:26.237Z,97826.04
2022-12-31T16:56:01.316Z,97825.65
2022-12-31T16:58:34.541Z,97825.29
2022-12-31T17:01:17.480Z,97817.89
2022-12-31T17:03:52.380Z,97820.83
2022-12-31T17:06:24.300Z,97819.84
2022-12-31T17:09:12.806Z,97825.30
2022-12-31T17:11:50.509Z,97825.15
2022-12-31T17:14:24.436Z,97828.50
2022-12-31T17:17:03.807Z,97830.06
2022-12-31T17:19:46.716Z,97834.88
2022-12-31T17:22:32.767Z,97842.80
2022-12-31T17:25:09.489Z,97851.27
2022-12-31T17:27:40.609Z,97854.20
2022-12-31T17:30:36.485Z,97850.19
2022-12-31T17:33:32.206Z,97856.86
2022-12-31T17:36:24.439Z,97860.52
2022-12-31T17:38:55.512Z,97861.86
2022-12-31T17:41:28.669Z,97862.33
2022-12-31T17:44:00.014Z,97867.11
2022-12-31T17:46:31.275Z,97863.98
2022-12-31T17:49:04.465Z,97862.81
2022-12-31T17:51:35.691Z,97849.66
2022-12-31T17:54:13.403Z,97845.27
2022-12-31T17:56:44.735Z,97857.35
2022-12-31T17:59:19.351Z,97853.28
2022-12-31T18:01:50.990Z,97856.63
2022-12-31T18:04:22.778Z,97870.92
2022-12-31T18:06:53.950Z,97870.83
2022-12-31T18:09:25.572Z,97867.88
2022-12-31T18:12:01.404Z,97871.20
2022-12-31T18:14:32.927Z,97869.02
2022-12-31T18:17:04.008Z,97875.16
2022-12-31T18:22:26.244Z,97873.40
2022-12-31T18:24:57.444Z,97877.12
2022-12-31T18:27:27.109Z,97887.02
2022-12-31T18:30:04.557Z,97873.18
2022-12-31T18:32:38.521Z,97885.31
2022-12-31T18:35:48.565Z,97876.75
2022-12-31T18:38:12.355Z,97891.52
2022-12-31T18:40:46.788Z,97889.80
2022-12-31T18:43:20.105Z,97886.88
2022-12-31T18:45:52.129Z,97878.12
2022-12-31T18:48:23.114Z,97881.99
2022-12-31T18:50:54.351Z,97888.61
2022-12-31T18:53:26.227Z,97887.75
2022-12-31T18:55:58.608Z,97888.92
2022-12-31T18:58:29.867Z,97882.15
2022-12-31T19:01:00.026Z,97885.66
2022-12-31T19:03:31.345Z,97892.99
2022-12-31T19:06:01.022Z,97889.77
2022-12-31T19:08:33.089Z,97881.41
2022-12-31T19:11:04.573Z,97879.13
2022-12-31T19:13:35.696Z,97872.96
2022-12-31T19:16:05.606Z,97873.00
2022-12-31T19:18:37.056Z,97873.16
2022-12-31T19:21:14.218Z,97871.17
2022-12-31T19:23:45.934Z,97881.82
2022-12-31T19:26:22.832Z,97875.04
2022-12-31T19:28:54.140Z,97881.65
2022-12-31T19:31:25.164Z,97877.92
2022-12-31T19:33:56.533Z,97889.58
2022-12-31T19:36:26.068Z,97892.59
2022-12-31T19:38:57.102Z,97900.46
2022-12-31T19:41:28.073Z,97896.98
2022-12-31T19:43:59.322Z,97898.01
2022-12-31T19:46:30.411Z,97903.34
2022-12-31T19:49:01.363Z,97892.95
2022-12-31T19:51:31.013Z,97894.17
2022-12-31T19:54:02.002Z,97895.48
2022-12-31T19:56:31.498Z,97889.73
2022-12-31T19:59:06.820Z,97888.35
2022-12-31T20:01:37.964Z,97888.42
2022-12-31T20:04:09.191Z,97890.05
2022-12-31T20:06:38.733Z,97887.08
2022-12-31T20:09:09.658Z,97891.40
2022-12-31T20:11:40.755Z,97900.47
2022-12-31T20:14:12.016Z,97898.33
2022-12-31T20:16:41.552Z,97894.41
2022-12-31T20:19:11.799Z,97898.21
2022-12-31T20:21:44.571Z,97901.67
2022-12-31T20:24:15.634Z,97897.34
2022-12-31T20:26:45.177Z,97898.84
2022-12-31T20:29:16.219Z,97896.54
2022-12-31T20:31:48.077Z,97902.08
2022-12-31T20:34:19.133Z,97896.28
2022-12-31T20:36:50.184Z,97893.79
2022-12-31T20:39:21.708Z,97897.00
2022-12-31T20:41:53.241Z,97894.30
2022-12-31T20:44:24.392Z,97893.45
2022-12-31T20:46:55.423Z,97890.14
2022-12-31T20:49:52.097Z,97889.20
2022-12-31T20:52:17.497Z,97890.33
2022-12-31T20:54:48.496Z,97893.11
2022-12-31T20:57:19.673Z,97891.36
2022-12-31T20:59:49.496Z,97893.64
2022-12-31T21:02:29.471Z,97901.36
2022-12-31T21:05:06.336Z,97905.63
2022-12-31T21:07:37.746Z,97905.36
2022-12-31T21:10:10.151Z,97902.92
2022-12-31T21:12:44.595Z,97905.77
2022-12-31T21:15:15.806Z,97908.46
2022-12-31T21:17:47.444Z,97918.08
2022-12-31T21:20:18.907Z,97913.35
2022-12-31T21:22:50.082Z,97908.47
2022-12-31T21:25:19.668Z,97911.63
2022-12-31T21:27:50.892Z,97903.06
2022-12-31T21:30:22.001Z,97906.67
2022-12-31T21:32:53.122Z,97914.95
2022-12-31T21:38:15.398Z,97911.79
2022-12-31T21:40:46.637Z,97910.70
2022-12-31T21:43:18.305Z,97909.06
2022-12-31T21:46:00.213Z,97910.92
2022-12-31T21:48:31.436Z,97911.83
2022-12-31T21:51:12.889Z,97915.16
2022-12-31T21:53:44.114Z,97917.85
2022-12-31T21:56:14.736Z,97914.63
2022-12-31T21:59:08.453Z,97915.77
2022-12-31T22:01:57.149Z,97916.00
2022-12-31T22:05:00.932Z,97915.31
2022-12-31T22:07:19.828Z,97913.67
2022-12-31T22:09:51.412Z,97910.28
2022-12-31T22:12:22.565Z,97917.20
2022-12-31T22:15:14.616Z,97924.58
2022-12-31T22:17:43.054Z,97920.32
2022-12-31T22:20:27.137Z,97924.21
2022-12-31T22:22:58.441Z,97925.27
2022-12-31T22:25:29.700Z,97925.48
2022-12-31T22:28:36.272Z,97922.66
2022-12-31T22:30:51.094Z,97916.11
2022-12-31T22:33:22.053Z,97918.50
2022-12-31T22:36:02.547Z,97918.30
2022-12-31T22:38:34.091Z,97913.86
2022-12-31T22:41:08.159Z,97915.27
2022-12-31T22:43:41.100Z,97913.45
2022-12-31T22:46:14.643Z,97918.23
2022-12-31T22:48:45.894Z,97923.16
2022-12-31T22:51:18.151Z,97930.84
2022-12-31T22:53:51.780Z,97930.52
2022-12-31T22:56:22.972Z,97930.42
2022-12-31T22:58:52.388Z,97928.34
2022-12-31T23:01:25.032Z,97927.94
2022-12-31T23:03:57.376Z,97920.20
2022-12-31T23:06:29.185Z,97920.42
2022-12-31T23:09:17.832Z,97919.63
2022-12-31T23:11:48.868Z,97921.81
2022-12-31T23:14:35.907Z,97924.20
2022-12-31T23:17:30.213Z,97923.20
2022-12-31T23:20:20.637Z,97916.65
2022-12-31T23:23:10.403Z,97916.75
2022-12-31T23:25:43.990Z,97916.61
2022-12-31T23:28:17.767Z,97914.17
2022-12-31T23:30:49.212Z,97914.02
2022-12-31T23:33:22.239Z,97908.34
2022-12-31T23:36:06.093Z,97907.68
2022-12-31T23:38:37.322Z,97902.45
2022-12-31T23:41:16.742Z,97899.41
2022-12-31T23:43:49.219Z,97895.50
2022-12-31T23:46:23.398Z,97893.98
2022-12-31T23:48:54.874Z,97897.23
2022-12-31T23:51:26.031Z,97895.90
2022-12-31T23:53:57.192Z,97890.10
2022-12-31T23:56:28.223Z,97893.86
2022-12-31T23:59:00.902Z,97901.95
